Time;durP1;ratioP1;P1;durP2;ratioP2;P2;SDS_P1;SDS_P2;PMS_P1;PMS_P2;Temp;Humidity;BMP_temperature;BMP_pressure;BME280_temperature;BME280_humidity;BME280_pressure;Samples;Min_cycle;Max_cycle;Signal;HPM_P1;HPM_P2
2022/08/18 00:03:11;;;;;;;5.28;2.85;;;;;;;19.11;100.00;101431.31;10445632;28;20087;-82
2022/08/18 00:09:06;;;;;;;6.15;3.13;;;;;;;19.24;100.00;101432.19;10455539;28;20037;-83
2022/08/18 00:14:13;;;;;;;7.60;4.07;;;;;;;19.00;100.00;101458.34;10459887;28;20508;-83
2022/08/18 00:19:27;;;;;;;7.32;3.60;;;;;;;19.29;100.00;101469.59;10470517;28;20045;-82
2022/08/18 00:24:51;;;;;;;5.57;2.47;;;;;;;19.42;100.00;101439.13;10467736;28;20051;-83
2022/08/18 00:29:54;;;;;;;9.75;4.22;;;;;;;19.21;100.00;101453.09;10449106;28;20041;-81
2022/08/18 00:34:56;;;;;;;9.55;4.03;;;;;;;19.24;100.00;101471.38;10459943;28;20087;-82
2022/08/18 00:53:02;;;;;;;4.93;3.30;;;;;;;19.47;100.00;101480.03;10511124;28;20438;-80
2022/08/18 00:58:10;;;;;;;5.38;2.70;;;;;;;19.68;100.00;101477.41;10490234;28;20043;-81
2022/08/18 01:03:17;;;;;;;5.47;3.53;;;;;;;19.47;100.00;101479.19;10484914;28;20445;-82
2022/08/18 01:09:24;;;;;;;5.97;4.10;;;;;;;19.48;100.00;101491.34;10482394;28;20082;-82
2022/08/18 01:22:27;;;;;;;6.85;3.58;;;;;;;19.62;100.00;101473.91;10351613;28;20066;-82
2022/08/18 01:27:30;;;;;;;5.97;3.20;;;;;;;19.65;100.00;101473.91;10346205;28;20096;-82
2022/08/18 01:32:32;;;;;;;4.80;2.78;;;;;;;19.66;100.00;101478.25;10354300;28;20052;-82
2022/08/18 01:37:35;;;;;;;2.17;1.58;;;;;;;19.69;100.00;101460.84;10388642;28;20095;-81
2022/08/18 01:42:37;;;;;;;2.28;1.13;;;;;;;19.60;100.00;101446.91;10353915;28;20049;-81
2022/08/18 01:47:45;;;;;;;2.58;1.42;;;;;;;19.73;100.00;101432.03;10435622;28;20045;-82
2022/08/18 01:52:55;;;;;;;5.30;1.85;;;;;;;19.41;100.00;101438.25;10480104;28;20480;-81
2022/08/18 01:57:56;;;;;;;1.67;1.10;;;;;;;19.52;100.00;101458.25;10502677;28;20039;-81
2022/08/18 02:03:00;;;;;;;0.80;0.77;;;;;;;19.40;100.00;101456.56;10487536;28;20045;-81
2022/08/18 02:08:08;;;;;;;;;;;;;;;19.54;100.00;101451.28;10467000;28;20049;-81
2022/08/18 02:13:10;;;;;;;3.88;1.60;;;;;;;19.55;100.00;101445.19;10485493;28;20576;-81
2022/08/18 02:18:18;;;;;;;2.88;1.35;;;;;;;19.51;100.00;101431.25;10474749;28;20048;-81
2022/08/18 02:23:41;;;;;;;2.88;1.85;;;;;;;19.40;100.00;101443.50;10517986;28;20075;-81
2022/08/18 02:28:54;;;;;;;1.40;0.98;;;;;;;19.57;100.00;101443.44;10522834;28;20108;-82
2022/08/18 02:33:56;;;;;;;1.25;0.82;;;;;;;19.44;100.00;101437.38;10475723;28;20102;-82
2022/08/18 02:39:29;;;;;;;1.42;0.98;;;;;;;19.45;100.00;101444.34;10465267;28;20048;-82
2022/08/18 02:44:31;;;;;;;4.90;1.63;;;;;;;19.29;100.00;101454.81;10505281;28;20507;-81
2022/08/18 02:49:32;;;;;;;3.53;1.85;;;;;;;19.29;100.00;101475.72;10486672;28;20400;-81
2022/08/18 02:54:34;;;;;;;3.03;2.05;;;;;;;19.09;100.00;101480.09;10494195;28;20063;-79
2022/08/18 02:59:39;;;;;;;1.60;1.42;;;;;;;18.99;100.00;101482.69;10520739;28;20099;-78
2022/08/18 03:04:40;;;;;;;1.65;1.40;;;;;;;18.88;100.00;101476.56;10504057;28;20119;-78
2022/08/18 03:09:42;;;;;;;2.50;1.23;;;;;;;18.80;100.00;101475.72;10503508;28;20047;-78
2022/08/18 03:14:45;;;;;;;2.25;1.40;;;;;;;18.85;100.00;101473.97;10541188;28;20071;-78
2022/08/18 03:19:47;;;;;;;2.45;2.05;;;;;;;18.65;100.00;101477.41;10522331;28;20052;-78
2022/08/18 03:24:48;;;;;;;3.65;2.10;;;;;;;18.64;100.00;101488.75;10540956;28;20060;-78
2022/08/18 03:36:24;;;;;;;1.67;1.38;;;;;;;18.62;100.00;101487.84;10482405;28;20080;-78
2022/08/18 03:41:27;;;;;;;2.55;1.50;;;;;;;18.58;100.00;101485.22;10571724;28;20116;-78
2022/08/18 03:46:49;;;;;;;2.25;1.30;;;;;;;18.61;100.00;101475.66;10558427;28;20070;-79
2022/08/18 03:51:51;;;;;;;1.02;0.77;;;;;;;18.71;100.00;101455.66;10544315;28;20128;-78
2022/08/18 03:56:54;;;;;;;1.15;0.65;;;;;;;18.86;100.00;101447.00;10529158;28;20139;-79
2022/08/18 04:01:56;;;;;;;0.88;0.65;;;;;;;18.94;100.00;101436.56;10529589;28;20041;-78
2022/08/18 04:07:03;;;;;;;1.33;0.82;;;;;;;18.77;100.00;101444.38;10547576;28;20028;-78
2022/08/18 04:12:10;;;;;;;1.58;1.00;;;;;;;18.80;100.00;101450.47;10511707;28;20389;-78
2022/08/18 04:17:24;;;;;;;1.38;1.15;;;;;;;18.64;100.00;101457.41;10529523;28;20033;-78
2022/08/18 04:22:26;;;;;;;1.13;1.02;;;;;;;18.77;100.00;101460.88;10546321;28;20036;-78
2022/08/18 04:27:28;;;;;;;1.50;0.57;;;;;;;18.81;100.00;101459.16;10496992;28;20056;-79
2022/08/18 04:32:31;;;;;;;1.85;1.30;;;;;;;18.74;100.00;101454.78;10475109;28;20056;-78
2022/08/18 04:37:32;;;;;;;1.27;0.80;;;;;;;18.74;100.00;101452.19;10471225;28;20115;-78
2022/08/18 04:42:51;;;;;;;2.08;1.40;;;;;;;18.54;100.00;101461.72;10477302;28;20052;-78
2022/08/18 04:47:53;;;;;;;0.95;0.60;;;;;;;18.58;100.00;101472.19;10491008;28;20073;-78
2022/08/18 04:58:17;;;;;;;;;;;;;;;18.69;100.00;101479.16;10479066;28;20131;-78
2022/08/18 05:03:19;;;;;;;1.13;0.70;;;;;;;18.66;100.00;101489.59;10464901;28;20445;-77
2022/08/18 05:08:22;;;;;;;1.17;0.82;;;;;;;18.61;100.00;101496.53;10503366;28;20503;-78
2022/08/18 05:13:25;;;;;;;2.65;1.70;;;;;;;18.71;100.00;101498.31;10486115;28;20120;-78
2022/08/18 05:18:26;;;;;;;1.30;0.82;;;;;;;18.82;100.00;101498.34;10478669;28;20055;-77
2022/08/18 05:23:28;;;;;;;0.90;0.60;;;;;;;18.77;100.00;101502.66;10492765;28;20056;-77
2022/08/18 05:28:31;;;;;;;1.20;0.60;;;;;;;18.67;100.00;101500.91;10462922;28;20071;-77
2022/08/18 05:34:03;;;;;;;2.10;0.68;;;;;;;18.78;100.00;101495.72;10495475;28;20053;-77
2022/08/18 05:39:16;;;;;;;0.52;0.43;;;;;;;18.77;100.00;101496.56;10461666;28;20051;-79
2022/08/18 05:44:27;;;;;;;0.70;0.55;;;;;;;18.90;100.00;101485.28;10487596;28;20090;-82
2022/08/18 05:49:29;;;;;;;1.17;0.52;;;;;;;18.84;100.00;101487.88;10498495;28;20498;-82
2022/08/18 06:00:08;;;;;;;3.95;0.73;;;;;;;19.23;100.00;101486.19;10471198;28;20048;-82
2022/08/18 06:05:25;;;;;;;1.35;0.88;;;;;;;19.25;100.00;101473.13;10503520;28;20040;-82
2022/08/18 06:10:27;;;;;;;1.10;0.75;;;;;;;19.33;100.00;101477.44;10489388;28;20446;-82
2022/08/18 06:15:34;;;;;;;2.88;0.75;;;;;;;19.25;100.00;101478.34;10487012;28;20055;-82
2022/08/18 06:20:58;;;;;;;1.25;0.88;;;;;;;19.37;100.00;101482.69;10484449;28;20037;-83
2022/08/18 06:26:12;;;;;;;0.35;0.28;;;;;;;19.37;100.00;101487.91;10499821;28;20056;-82
2022/08/18 06:31:44;;;;;;;0.38;0.38;;;;;;;19.52;100.00;101479.16;10519608;28;20057;-82
2022/08/18 06:37:05;;;;;;;0.68;0.63;;;;;;;19.47;100.00;101480.03;10502977;28;20911;-82
2022/08/18 06:42:07;;;;;;;3.60;1.08;;;;;;;19.48;100.00;101480.91;10506862;28;20103;-82
2022/08/18 06:47:15;;;;;;;1.45;1.00;;;;;;;19.48;100.00;101496.59;10469709;28;20130;-81
2022/08/18 06:52:32;;;;;;;2.33;1.52;;;;;;;19.58;100.00;101490.47;10447227;28;20311;-81
2022/08/18 06:57:51;;;;;;;0.75;0.63;;;;;;;19.69;100.00;101479.13;10480893;28;20511;-81
2022/08/18 07:03:12;;;;;;;2.17;1.03;;;;;;;19.67;100.00;101481.72;10471444;28;20045;-81
2022/08/18 07:08:41;;;;;;;3.20;1.27;;;;;;;19.72;100.00;101489.56;10452165;28;20080;-82
2022/08/18 07:20:44;;;;;;;2.10;1.15;;;;;;;19.85;100.00;101475.59;10335813;28;20035;-82
2022/08/18 07:25:51;;;;;;;1.40;0.60;;;;;;;20.16;100.00;101465.00;10459391;28;20039;-85
2022/08/18 07:31:34;;;;;;;1.75;0.57;;;;;;;20.50;100.00;101457.00;10471403;28;20047;-83
2022/08/18 07:36:46;;;;;;;1.85;0.90;;;;;;;20.54;100.00;101435.13;10472878;28;20086;-82
2022/08/18 07:41:56;;;;;;;2.25;1.10;;;;;;;20.72;100.00;101422.78;10463555;28;20083;-82
2022/08/18 07:47:05;;;;;;;1.65;1.13;;;;;;;20.58;100.00;101415.03;10448563;28;20094;-82
2022/08/18 07:52:19;;;;;;;0.80;0.45;;;;;;;20.69;100.00;101418.47;10450354;28;20037;-82
2022/08/18 07:57:58;;;;;;;1.15;0.77;;;;;;;20.51;100.00;101408.13;10479831;28;20041;-82
2022/08/18 08:03:33;;;;;;;1.05;0.65;;;;;;;20.74;100.00;101406.22;10470202;28;20055;-83
2022/08/18 08:09:00;;;;;;;0.75;0.75;;;;;;;21.08;100.00;101395.41;10460686;28;20046;-84
2022/08/18 08:14:29;;;;;;;1.35;0.80;;;;;;;21.27;100.00;101383.88;10475395;28;20064;-81
2022/08/18 08:19:54;;;;;;;1.58;0.90;;;;;;;21.47;100.00;101373.16;10477886;28;20055;-83
2022/08/18 08:25:29;;;;;;;0.43;0.38;;;;;;;21.32;100.00;101372.47;10484937;28;20064;-85
2022/08/18 08:31:23;;;;;;;3.70;1.05;;;;;;;22.45;100.00;101378.84;10463977;28;20052;-83
2022/08/18 08:36:40;;;;;;;2.38;1.15;;;;;;;22.04;100.00;101367.19;10500483;28;20530;-84
2022/08/18 08:42:27;;;;;;;1.95;0.82;;;;;;;22.01;100.00;101377.72;10476753;28;20055;-84
2022/08/18 08:47:40;;;;;;;0.43;0.43;;;;;;;21.86;100.00;101384.06;10458762;28;20044;-82
2022/08/18 08:53:04;;;;;;;1.42;1.13;;;;;;;22.19;100.00;101372.22;10470789;28;20091;-86
2022/08/18 08:58:12;;;;;;;0.50;0.45;;;;;;;23.19;100.00;101373.22;10471583;28;20045;-85
2022/08/18 09:03:24;;;;;;;0.70;0.65;;;;;;;23.97;100.00;101354.09;10464327;28;20246;-83
2022/08/18 09:08:46;;;;;;;0.85;0.50;;;;;;;24.41;100.00;101339.00;10476626;28;20125;-84
2022/08/18 09:14:09;;;;;;;3.70;1.77;;;;;;;22.93;100.00;101358.78;10478773;28;20443;-85
2022/08/18 09:19:45;;;;;;;0.98;0.73;;;;;;;22.73;100.00;101372.25;10460929;28;20037;-85
2022/08/18 09:24:50;;;;;;;0.90;0.47;;;;;;;22.84;100.00;101385.22;10460252;28;20056;-84
2022/08/18 09:29:58;;;;;;;0.43;0.43;;;;;;;22.97;100.00;101368.34;10479097;28;20037;-84
2022/08/18 09:35:42;;;;;;;0.70;0.60;;;;;;;23.10;100.00;101375.09;10485923;28;20044;-85
2022/08/18 09:46:42;;;;;;;0.43;0.43;;;;;;;23.63;100.00;101363.56;10483486;28;20044;-85
2022/08/18 09:51:46;;;;;;;0.40;0.38;;;;;;;23.05;100.00;101369.03;10457048;28;20057;-85
2022/08/18 09:57:02;;;;;;;0.30;0.25;;;;;;;22.65;100.00;101377.66;10466427;28;20044;-85
2022/08/18 10:02:11;;;;;;;1.45;0.68;;;;;;;22.73;100.00;101367.00;10468562;28;20098;-84
2022/08/18 10:07:35;;;;;;;1.08;0.73;;;;;;;22.27;100.00;101364.22;10462225;28;20288;-85
2022/08/18 10:12:53;;;;;;;2.63;0.95;;;;;;;22.35;100.00;101382.50;10456407;28;20400;-85
2022/08/18 10:18:10;;;;;;;0.28;0.20;;;;;;;;;;10448041;28;20063;-82
2022/08/18 10:23:48;;;;;;;1.50;0.85;;;;;;;22.38;100.00;101387.66;10458063;28;20066;-83
2022/08/18 10:30:15;;;;;;;0.70;0.70;;;;;;;22.50;100.00;101386.66;10480292;28;20052;-85
2022/08/18 10:56:57;;;;;;;3.28;0.80;;;;;;;23.85;100.00;101347.31;10489348;28;20064;-87
2022/08/18 11:02:48;;;;;;;0.55;0.43;;;;;;;23.82;100.00;101347.38;10492861;28;20057;-83
2022/08/18 11:07:56;;;;;;;1.35;0.68;;;;;;;23.60;100.00;101350.47;10477564;28;20048;-85
2022/08/18 11:13:20;;;;;;;1.27;1.10;;;;;;;23.72;100.00;101355.47;10463905;28;20437;-84
2022/08/18 11:18:27;;;;;;;1.02;0.68;;;;;;;25.29;100.00;101323.47;10482366;28;20048;-83
2022/08/18 11:23:30;;;;;;;0.40;0.40;;;;;;;26.26;100.00;101311.72;10493500;28;20036;-83
2022/08/18 11:28:32;;;;;;;1.02;0.77;;;;;;;24.20;100.00;101332.47;10488547;28;20547;-82
2022/08/18 11:33:40;;;;;;;0.45;0.28;;;;;;;26.37;100.00;101307.84;10480290;28;20480;-86
2022/08/18 11:38:56;;;;;;;0.50;0.38;;;;;;;26.19;100.00;101294.34;10489791;28;20051;-85
2022/08/18 11:44:01;;;;;;;1.13;0.30;;;;;;;25.33;100.00;101288.19;10497877;28;20044;-82
2022/08/18 11:49:31;;;;;;;0.20;0.20;;;;;;;25.67;100.00;101281.06;10492748;28;20044;-83
2022/08/18 11:55:04;;;;;;;0.20;0.10;;;;;;;26.46;100.00;101286.41;10483257;28;20048;-83
2022/08/18 12:00:55;;;;;;;0.73;0.30;;;;;;;26.85;100.00;101272.69;10457670;28;20037;-85
2022/08/18 12:06:18;;;;;;;0.35;0.35;;;;;;;26.41;100.00;101256.63;10487955;28;20047;-83
2022/08/18 12:12:00;;;;;;;0.73;0.57;;;;;;;26.20;100.00;101247.69;10499261;28;20436;-81
2022/08/18 12:17:09;;;;;;;0.52;0.40;;;;;;;26.58;100.00;101233.13;10479701;28;20044;-83
2022/08/18 12:22:16;;;;;;;0.47;0.28;;;;;;;26.94;100.00;101233.63;10488044;28;20044;-87
2022/08/18 12:27:22;;;;;;;0.30;0.30;;;;;;;27.28;100.00;101232.34;10500859;28;20048;-85
2022/08/18 12:32:26;;;;;;;0.15;0.13;;;;;;;26.56;100.00;101245.53;10467178;28;20041;-82
2022/08/18 12:37:48;;;;;;;0.60;0.40;;;;;;;25.65;100.00;101236.22;10509005;28;20052;-83
2022/08/18 12:43:10;;;;;;;2.03;0.43;;;;;;;26.69;100.00;101227.44;10491938;28;20067;-83
2022/08/18 12:48:14;;;;;;;0.43;0.32;;;;;;;27.03;100.00;101213.00;10467363;28;20087;-83
2022/08/18 12:53:15;;;;;;;0.60;0.28;;;;;;;26.25;100.00;101216.69;10477375;28;20051;-83
2022/08/18 12:58:18;;;;;;;0.38;0.20;;;;;;;25.19;100.00;101221.81;10488357;28;20488;-83
2022/08/18 13:03:20;;;;;;;0.10;0.10;;;;;;;25.20;100.00;101228.84;10496296;28;20163;-82
2022/08/18 13:08:23;;;;;;;0.35;0.30;;;;;;;25.11;100.00;101244.91;10481742;28;20048;-83
2022/08/18 13:13:33;;;;;;;0.52;0.43;;;;;;;25.30;100.00;101256.63;10473312;28;20041;-82
2022/08/18 13:18:41;;;;;;;0.45;0.35;;;;;;;25.28;100.00;101266.34;10479659;28;20060;-81
2022/08/18 13:23:43;;;;;;;0.00;0.00;;;;;;;25.29;100.00;101265.44;10466988;28;20695;-81
2022/08/18 13:28:46;;;;;;;0.20;0.10;;;;;;;24.61;100.00;101279.66;10484779;28;20094;-81
2022/08/18 13:33:58;;;;;;;0.98;0.30;;;;;;;24.76;100.00;101291.59;10482396;28;20051;-81
2022/08/18 13:39:04;;;;;;;0.13;0.10;;;;;;;24.50;100.00;101298.38;10473496;28;20060;-81
2022/08/18 13:44:23;;;;;;;0.20;0.20;;;;;;;24.43;100.00;101295.03;10492574;28;20051;-81
2022/08/18 13:49:26;;;;;;;0.17;0.17;;;;;;;24.46;100.00;101294.13;10498373;28;20538;-80
2022/08/18 13:54:32;;;;;;;0.10;0.10;;;;;;;24.47;100.00;101286.16;10489912;28;20412;-80
2022/08/18 13:59:37;;;;;;;0.20;0.20;;;;;;;24.59;100.00;101281.47;10492537;28;20068;-78
2022/08/18 14:04:48;;;;;;;0.10;0.10;;;;;;;24.55;100.00;101270.13;10491777;28;20044;-80
2022/08/18 14:09:53;;;;;;;0.63;0.28;;;;;;;24.75;100.00;101263.53;10479823;28;20090;-80
2022/08/18 14:14:55;;;;;;;0.15;0.15;;;;;;;24.83;100.00;101269.44;10475722;28;20053;-80
2022/08/18 14:30:48;;;;;;;16.58;0.43;;;;;;;24.93;100.00;101255.06;10476498;28;20076;-79
2022/08/18 14:35:56;;;;;;;0.25;0.20;;;;;;;25.43;100.00;101245.75;10483344;28;20128;-79
2022/08/18 14:41:10;;;;;;;0.32;0.20;;;;;;;25.09;100.00;101247.59;10457762;28;20072;-79
2022/08/18 14:46:13;;;;;;;0.43;0.28;;;;;;;25.26;100.00;101243.56;10481614;28;20043;-79
2022/08/18 14:51:15;;;;;;;0.13;0.13;;;;;;;25.03;100.00;101242.50;10476531;28;20468;-79
2022/08/18 14:56:24;;;;;;;0.10;0.10;;;;;;;25.15;100.00;101241.25;10482991;28;20060;-79
2022/08/18 15:15:31;;;;;;;11.95;4.22;;;;;;;25.39;100.00;101223.00;10479774;28;20551;-79
2022/08/18 15:26:32;;;;;;;3.67;2.22;;;;;;;25.86;100.00;101225.91;10483735;28;20110;-79
2022/08/18 15:31:36;;;;;;;0.52;0.52;;;;;;;25.32;100.00;101236.34;10495397;28;20037;-79
2022/08/18 15:36:59;;;;;;;0.30;0.22;;;;;;;25.18;100.00;101235.91;10472361;28;20048;-79
2022/08/18 15:42:11;;;;;;;0.00;0.00;;;;;;;24.60;100.00;101247.19;10503025;28;20040;-79
2022/08/18 15:47:14;;;;;;;0.28;0.20;;;;;;;25.05;100.00;101232.78;10502583;28;20044;-80
2022/08/18 15:52:23;;;;;;;0.20;0.15;;;;;;;24.73;100.00;101238.97;10482953;28;20028;-79
2022/08/18 15:57:27;;;;;;;0.10;0.10;;;;;;;25.01;100.00;101239.06;10501731;28;20029;-79
2022/08/18 16:02:57;;;;;;;0.20;0.20;;;;;;;24.70;100.00;101234.66;10484905;28;20040;-79
2022/08/18 16:08:00;;;;;;;0.30;0.10;;;;;;;24.75;100.00;101231.91;10481996;28;20132;-79
2022/08/18 16:13:03;;;;;;;0.00;0.00;;;;;;;24.73;100.00;101223.16;10465973;28;20037;-79
2022/08/18 16:18:07;;;;;;;0.00;0.00;;;;;;;24.73;100.00;101228.44;10496855;28;20552;-78
2022/08/18 16:23:11;;;;;;;0.30;0.17;;;;;;;24.64;100.00;101230.38;10476378;28;20553;-79
2022/08/18 16:28:12;;;;;;;0.17;0.10;;;;;;;25.03;100.00;101222.28;10490448;28;20048;-78
2022/08/18 16:33:14;;;;;;;0.45;0.30;;;;;;;25.19;100.00;101222.69;10509560;28;20058;-78
2022/08/18 16:38:16;;;;;;;0.00;0.00;;;;;;;25.28;100.00;101229.44;10534161;28;20076;-79
2022/08/18 16:43:17;;;;;;;0.73;0.50;;;;;;;24.76;100.00;101223.09;10537466;28;20052;-79
2022/08/18 16:48:20;;;;;;;0.10;0.10;;;;;;;24.84;100.00;101224.59;10497611;28;20052;-78
2022/08/18 16:53:22;;;;;;;0.10;0.05;;;;;;;25.03;100.00;101222.28;10469390;28;20076;-78
2022/08/18 17:09:16;;;;;;;0.22;0.20;;;;;;;24.66;100.00;101231.25;10472293;28;20396;-78
2022/08/18 17:14:20;;;;;;;0.32;0.30;;;;;;;24.44;100.00;101232.72;10475674;28;20048;-78
2022/08/18 17:19:25;;;;;;;0.20;0.20;;;;;;;24.38;100.00;101234.63;10497592;28;20048;-78
2022/08/18 17:24:27;;;;;;;0.45;0.22;;;;;;;24.20;100.00;101230.66;10500066;28;20075;-77
2022/08/18 17:29:45;;;;;;;0.43;0.10;;;;;;;24.38;100.00;101228.47;10480774;28;20052;-79
2022/08/18 17:34:56;;;;;;;0.55;0.35;;;;;;;24.37;100.00;101224.09;10461625;28;20066;-78
2022/08/18 17:40:07;;;;;;;0.38;0.30;;;;;;;24.31;100.00;101227.75;10471609;28;20101;-79
2022/08/18 17:45:12;;;;;;;0.13;0.03;;;;;;;24.03;100.00;101228.47;10494508;28;20045;-80
2022/08/18 17:57:29;;;;;;;0.30;0.20;;;;;;;23.56;100.00;101228.69;10402162;28;20064;-79
2022/08/18 18:02:32;;;;;;;0.05;0.05;;;;;;;23.56;100.00;101235.75;10439565;28;20057;-78
2022/08/18 18:07:53;;;;;;;0.00;0.00;;;;;;;23.35;100.00;101230.03;10493753;28;20041;-78
2022/08/18 18:13:19;;;;;;;0.03;0.03;;;;;;;23.29;100.00;101230.19;10503530;28;20076;-79
2022/08/18 18:18:33;;;;;;;0.00;0.00;;;;;;;23.21;100.00;101235.63;10485506;28;20067;-79
2022/08/18 18:23:39;;;;;;;0.20;0.13;;;;;;;22.96;100.00;101238.72;10480107;28;20041;-79
2022/08/18 18:28:41;;;;;;;0.40;0.25;;;;;;;22.73;100.00;101239.19;10468597;28;20447;-79
2022/08/18 18:33:44;;;;;;;0.03;0.03;;;;;;;22.58;100.00;101247.38;10475081;28;20132;-79
2022/08/18 18:39:02;;;;;;;0.20;0.00;;;;;;;22.34;100.00;101260.88;10481038;28;20101;-79
2022/08/18 18:44:12;;;;;;;0.28;0.08;;;;;;;22.16;100.00;101256.81;10497960;28;20055;-79
2022/08/18 18:49:17;;;;;;;0.00;0.00;;;;;;;22.05;100.00;101263.13;10484234;28;20048;-78
2022/08/18 18:54:34;;;;;;;0.15;0.10;;;;;;;21.89;100.00;101265.13;10468663;28;20063;-79
2022/08/18 19:00:18;;;;;;;0.20;0.20;;;;;;;21.56;100.00;101276.91;10479128;28;20055;-78
2022/08/18 19:06:00;;;;;;;0.08;0.00;;;;;;;21.25;100.00;101284.31;10515719;22;20512;-82
2022/08/18 19:11:45;;;;;;;0.00;0.00;;;;;;;21.02;100.00;101289.84;10567865;28;20052;-80
2022/08/18 19:17:54;;;;;;;0.00;0.00;;;;;;;20.71;100.00;101295.38;10565918;28;20513;-81
2022/08/18 19:23:56;;;;;;;0.10;0.10;;;;;;;20.47;100.00;101293.88;10556845;28;20051;-81
2022/08/18 19:29:24;;;;;;;0.15;0.10;;;;;;;20.32;100.00;101305.31;10516788;22;20043;-81
2022/08/18 19:35:08;;;;;;;0.08;0.08;;;;;;;20.25;100.00;101301.91;10508175;28;20502;-80
2022/08/18 19:41:02;;;;;;;0.22;0.10;;;;;;;20.11;100.00;101305.47;10583663;28;20055;-81
2022/08/18 19:46:44;;;;;;;;;;;;;;;19.92;100.00;101316.97;10584849;28;20051;-81
2022/08/18 19:53:03;;;;;;;1.98;0.25;;;;;;;19.72;100.00;101322.25;10569378;28;19919;-80
2022/08/18 20:05:56;;;;;;;0.00;0.00;;;;;;;19.50;100.00;101322.38;10578086;28;20055;-80
2022/08/18 20:11:55;;;;;;;0.20;0.20;;;;;;;19.31;100.00;101322.47;10583128;28;20043;-80
2022/08/18 20:17:21;;;;;;;0.52;0.13;;;;;;;19.22;100.00;101322.50;10580395;28;20130;-80
2022/08/18 20:23:00;;;;;;;0.38;0.20;;;;;;;18.98;100.00;101345.19;10529268;28;20060;-80
2022/08/18 20:28:42;;;;;;;0.40;0.15;;;;;;;18.82;100.00;101340.81;10523152;28;20044;-80
2022/08/18 20:41:20;;;;;;;0.15;0.10;;;;;;;18.96;100.00;101341.69;10575914;27;20051;-80
2022/08/18 20:47:35;;;;;;;0.13;0.10;;;;;;;18.74;100.00;101339.97;10593942;22;20074;-81
